Archival Weather

Chicago O'Hare International

Chicago, Illinois (KORD)

Report from: Monday, June 17, 2024 6:51 PM CDT
Current time: Sunday, July 14, 2024 6:42 AM CDT

Current weather – Weather history – Daily summaries
Weather forecast

Temperature34.4°C (93.9°F)
Heat index36.5°C (97.8°F)
Dew point19.4°C (66.9°F)
Winds 12 kts (6.2 m/s, 13.8 mph) South (180°)
Wind gusts 24 kts (12.3 m/s, 27.6 mph)
Visibility10 mi. (16.1 km)
Clouds Few clouds 7,000 ft. (2,134 m)
Scattered clouds 25,000 ft. (7,620 m)
Altimeter29.86 in.Hg (1011 mB)
Relative humidity41 %
Density altitude2,608 ft. (795 m)
Sea-level pressure101.0 kPa (1010 mB, 29.83 in.Hg)
Max temp last 6 hours36.1°C (97.0°F)
Min temp last 6 hours33.3°C (91.9°F)
Remarks Automated weather observing station with precipitation discriminator
Lightning observed
Distant southeast
Pressure falling, then rising
Flight conditions Visual Meteorological Conditions
Raw dataKORD 172351Z 18012G24KT 10SM FEW070 SCT250 34/19 A2986 RMK AO2 LTG DSNT SE SLP103 T03440194 10361 20333 55006
An error has occurred. This application may no longer respond until reloaded. Reload 🗙